sensor_id;sensor_type;location;lat;lon;timestamp;P1;durP1;ratioP1;P2;durP2;ratioP2
45136;SDS011;30894;51.740;19.498;2023-09-30T04:02:58;11.75;;;6.20;;
45136;SDS011;30894;51.740;19.498;2023-09-30T04:05:25;13.55;;;6.57;;
45136;SDS011;30894;51.740;19.498;2023-09-30T04:07:55;12.35;;;6.60;;
45136;SDS011;30894;51.740;19.498;2023-09-30T04:10:21;13.73;;;7.03;;
45136;SDS011;30894;51.740;19.498;2023-09-30T04:12:50;11.63;;;7.55;;
45136;SDS011;30894;51.740;19.498;2023-09-30T04:15:24;14.63;;;7.20;;
45136;SDS011;30894;51.740;19.498;2023-09-30T04:17:50;15.48;;;6.68;;
45136;SDS011;30894;51.740;19.498;2023-09-30T04:20:20;10.98;;;6.53;;
45136;SDS011;30894;51.740;19.498;2023-09-30T04:22:48;13.65;;;6.93;;
45136;SDS011;30894;51.740;19.498;2023-09-30T04:25:15;15.35;;;6.88;;
45136;SDS011;30894;51.740;19.498;2023-09-30T04:27:43;12.48;;;6.82;;
45136;SDS011;30894;51.740;19.498;2023-09-30T04:30:10;11.30;;;7.68;;
45136;SDS011;30894;51.740;19.498;2023-09-30T04:32:37;12.23;;;7.10;;
45136;SDS011;30894;51.740;19.498;2023-09-30T04:35:06;16.42;;;6.88;;
45136;SDS011;30894;51.740;19.498;2023-09-30T04:37:33;16.60;;;6.82;;
45136;SDS011;30894;51.740;19.498;2023-09-30T04:40:03;11.73;;;6.18;;
45136;SDS011;30894;51.740;19.498;2023-09-30T04:42:41;12.65;;;6.93;;
45136;SDS011;30894;51.740;19.498;2023-09-30T04:45:10;14.48;;;7.25;;
45136;SDS011;30894;51.740;19.498;2023-09-30T04:47:37;12.55;;;7.35;;
45136;SDS011;30894;51.740;19.498;2023-09-30T04:50:07;14.27;;;7.32;;
45136;SDS011;30894;51.740;19.498;2023-09-30T04:52:34;14.57;;;7.60;;
45136;SDS011;30894;51.740;19.498;2023-09-30T04:55:01;14.75;;;8.00;;
45136;SDS011;30894;51.740;19.498;2023-09-30T04:57:30;13.93;;;6.90;;
45136;SDS011;30894;51.740;19.498;2023-09-30T04:59:57;13.95;;;7.68;;
45136;SDS011;30894;51.740;19.498;2023-09-30T05:02:24;12.57;;;6.78;;
45136;SDS011;30894;51.740;19.498;2023-09-30T05:04:51;14.75;;;7.15;;
45136;SDS011;30894;51.740;19.498;2023-09-30T05:07:19;12.27;;;7.13;;
45136;SDS011;30894;51.740;19.498;2023-09-30T05:09:47;14.75;;;7.40;;
45136;SDS011;30894;51.740;19.498;2023-09-30T05:12:14;12.77;;;5.93;;
45136;SDS011;30894;51.740;19.498;2023-09-30T05:14:43;11.60;;;7.32;;
45136;SDS011;30894;51.740;19.498;2023-09-30T05:17:09;13.90;;;7.38;;
45136;SDS011;30894;51.740;19.498;2023-09-30T05:19:35;11.80;;;6.32;;
45136;SDS011;30894;51.740;19.498;2023-09-30T05:22:02;11.48;;;6.38;;
45136;SDS011;30894;51.740;19.498;2023-09-30T05:24:38;14.98;;;7.05;;
45136;SDS011;30894;51.740;19.498;2023-09-30T05:27:04;11.25;;;6.90;;
45136;SDS011;30894;51.740;19.498;2023-09-30T05:29:30;18.20;;;7.32;;
45136;SDS011;30894;51.740;19.498;2023-09-30T05:31:58;10.98;;;7.35;;
45136;SDS011;30894;51.740;19.498;2023-09-30T05:34:25;14.63;;;7.72;;
45136;SDS011;30894;51.740;19.498;2023-09-30T05:36:53;16.25;;;7.97;;
45136;SDS011;30894;51.740;19.498;2023-09-30T05:39:19;13.88;;;7.03;;
45136;SDS011;30894;51.740;19.498;2023-09-30T05:41:46;15.35;;;7.18;;
45136;SDS011;30894;51.740;19.498;2023-09-30T05:44:12;14.93;;;7.32;;
45136;SDS011;30894;51.740;19.498;2023-09-30T05:47:03;13.43;;;7.55;;
45136;SDS011;30894;51.740;19.498;2023-09-30T05:49:31;13.68;;;7.07;;
45136;SDS011;30894;51.740;19.498;2023-09-30T05:51:58;13.85;;;7.55;;
45136;SDS011;30894;51.740;19.498;2023-09-30T05:54:28;13.45;;;7.40;;
45136;SDS011;30894;51.740;19.498;2023-09-30T05:56:54;12.75;;;7.90;;
45136;SDS011;30894;51.740;19.498;2023-09-30T05:59:21;19.45;;;8.10;;
45136;SDS011;30894;51.740;19.498;2023-09-30T06:01:51;16.63;;;8.57;;
45136;SDS011;30894;51.740;19.498;2023-09-30T06:04:17;14.23;;;8.70;;
45136;SDS011;30894;51.740;19.498;2023-09-30T06:06:43;14.40;;;7.72;;
45136;SDS011;30894;51.740;19.498;2023-09-30T06:09:10;15.75;;;8.25;;
45136;SDS011;30894;51.740;19.498;2023-09-30T06:11:37;15.60;;;7.57;;
45136;SDS011;30894;51.740;19.498;2023-09-30T06:14:06;16.13;;;8.70;;
45136;SDS011;30894;51.740;19.498;2023-09-30T06:16:33;20.50;;;8.23;;
45136;SDS011;30894;51.740;19.498;2023-09-30T06:19:00;16.35;;;8.43;;
45136;SDS011;30894;51.740;19.498;2023-09-30T06:21:27;21.23;;;8.88;;
45136;SDS011;30894;51.740;19.498;2023-09-30T06:24:02;16.23;;;8.50;;
45136;SDS011;30894;51.740;19.498;2023-09-30T06:26:31;14.80;;;8.68;;
45136;SDS011;30894;51.740;19.498;2023-09-30T06:29:03;15.40;;;8.15;;
45136;SDS011;30894;51.740;19.498;2023-09-30T06:31:32;13.73;;;8.45;;
45136;SDS011;30894;51.740;19.498;2023-09-30T06:34:00;14.75;;;8.90;;
45136;SDS011;30894;51.740;19.498;2023-09-30T06:36:38;14.18;;;8.23;;
45136;SDS011;30894;51.740;19.498;2023-09-30T06:39:15;17.45;;;9.00;;
45136;SDS011;30894;51.740;19.498;2023-09-30T06:41:44;17.13;;;8.55;;
45136;SDS011;30894;51.740;19.498;2023-09-30T06:44:18;16.92;;;8.85;;
45136;SDS011;30894;51.740;19.498;2023-09-30T06:46:50;20.13;;;9.13;;
45136;SDS011;30894;51.740;19.498;2023-09-30T06:49:16;15.38;;;9.52;;
45136;SDS011;30894;51.740;19.498;2023-09-30T06:51:43;17.73;;;9.70;;
45136;SDS011;30894;51.740;19.498;2023-09-30T06:54:12;19.40;;;9.85;;
45136;SDS011;30894;51.740;19.498;2023-09-30T06:56:48;18.33;;;9.52;;
45136;SDS011;30894;51.740;19.498;2023-09-30T06:59:14;16.60;;;8.75;;
45136;SDS011;30894;51.740;19.498;2023-09-30T07:01:41;16.40;;;8.88;;
45136;SDS011;30894;51.740;19.498;2023-09-30T07:04:07;17.52;;;9.43;;
45136;SDS011;30894;51.740;19.498;2023-09-30T07:06:34;19.63;;;9.18;;
45136;SDS011;30894;51.740;19.498;2023-09-30T07:09:03;17.98;;;10.43;;
45136;SDS011;30894;51.740;19.498;2023-09-30T07:12:04;20.98;;;10.55;;
45136;SDS011;30894;51.740;19.498;2023-09-30T07:14:33;17.42;;;9.90;;
45136;SDS011;30894;51.740;19.498;2023-09-30T07:16:59;19.48;;;10.30;;
45136;SDS011;30894;51.740;19.498;2023-09-30T07:19:26;18.88;;;10.02;;
45136;SDS011;30894;51.740;19.498;2023-09-30T07:21:52;16.15;;;9.30;;
45136;SDS011;30894;51.740;19.498;2023-09-30T07:24:26;17.90;;;10.25;;
45136;SDS011;30894;51.740;19.498;2023-09-30T07:27:00;17.70;;;9.50;;
45136;SDS011;30894;51.740;19.498;2023-09-30T07:29:32;20.50;;;11.25;;
45136;SDS011;30894;51.740;19.498;2023-09-30T07:31:58;18.98;;;9.80;;
45136;SDS011;30894;51.740;19.498;2023-09-30T07:34:34;22.60;;;10.15;;
45136;SDS011;30894;51.740;19.498;2023-09-30T07:39:49;16.70;;;9.32;;
45136;SDS011;30894;51.740;19.498;2023-09-30T07:42:30;21.40;;;10.10;;
45136;SDS011;30894;51.740;19.498;2023-09-30T07:45:02;19.60;;;10.05;;
45136;SDS011;30894;51.740;19.498;2023-09-30T07:47:39;18.60;;;10.35;;
45136;SDS011;30894;51.740;19.498;2023-09-30T07:50:06;16.77;;;9.50;;
45136;SDS011;30894;51.740;19.498;2023-09-30T07:52:35;19.45;;;9.73;;
45136;SDS011;30894;51.740;19.498;2023-09-30T07:55:13;18.58;;;10.13;;
45136;SDS011;30894;51.740;19.498;2023-09-30T07:57:59;17.55;;;10.18;;
45136;SDS011;30894;51.740;19.498;2023-09-30T08:00:30;18.55;;;10.13;;
45136;SDS011;30894;51.740;19.498;2023-09-30T08:02:59;17.67;;;10.30;;
45136;SDS011;30894;51.740;19.498;2023-09-30T08:05:30;17.80;;;9.27;;
45136;SDS011;30894;51.740;19.498;2023-09-30T08:07:56;15.13;;;8.90;;
45136;SDS011;30894;51.740;19.498;2023-09-30T08:10:28;19.38;;;10.05;;
45136;SDS011;30894;51.740;19.498;2023-09-30T08:12:55;19.75;;;9.70;;
45136;SDS011;30894;51.740;19.498;2023-09-30T08:15:24;17.33;;;9.40;;
45136;SDS011;30894;51.740;19.498;2023-09-30T08:17:51;15.27;;;9.05;;
45136;SDS011;30894;51.740;19.498;2023-09-30T08:20:17;17.38;;;9.40;;
45136;SDS011;30894;51.740;19.498;2023-09-30T08:22:44;20.48;;;9.18;;
45136;SDS011;30894;51.740;19.498;2023-09-30T08:25:10;18.08;;;9.45;;
45136;SDS011;30894;51.740;19.498;2023-09-30T08:27:37;18.73;;;9.32;;
45136;SDS011;30894;51.740;19.498;2023-09-30T08:30:04;15.88;;;8.30;;
45136;SDS011;30894;51.740;19.498;2023-09-30T08:32:32;15.40;;;8.55;;
45136;SDS011;30894;51.740;19.498;2023-09-30T08:35:00;16.65;;;9.23;;
45136;SDS011;30894;51.740;19.498;2023-09-30T08:37:28;15.20;;;7.93;;
45136;SDS011;30894;51.740;19.498;2023-09-30T08:39:55;16.23;;;8.60;;
45136;SDS011;30894;51.740;19.498;2023-09-30T08:42:21;14.82;;;8.70;;
45136;SDS011;30894;51.740;19.498;2023-09-30T08:44:51;15.90;;;7.55;;
45136;SDS011;30894;51.740;19.498;2023-09-30T08:47:21;12.95;;;6.05;;
45136;SDS011;30894;51.740;19.498;2023-09-30T08:49:54;12.00;;;6.63;;
45136;SDS011;30894;51.740;19.498;2023-09-30T08:52:34;14.40;;;6.35;;
45136;SDS011;30894;51.740;19.498;2023-09-30T08:55:01;13.27;;;5.90;;
45136;SDS011;30894;51.740;19.498;2023-09-30T08:57:29;10.30;;;6.28;;
45136;SDS011;30894;51.740;19.498;2023-09-30T08:59:57;14.88;;;5.80;;
45136;SDS011;30894;51.740;19.498;2023-09-30T09:02:26;12.70;;;5.90;;
45136;SDS011;30894;51.740;19.498;2023-09-30T09:04:52;11.38;;;5.88;;
45136;SDS011;30894;51.740;19.498;2023-09-30T09:07:18;10.88;;;5.75;;
45136;SDS011;30894;51.740;19.498;2023-09-30T09:10:04;15.77;;;7.00;;
45136;SDS011;30894;51.740;19.498;2023-09-30T09:12:38;14.73;;;6.63;;
45136;SDS011;30894;51.740;19.498;2023-09-30T09:15:07;10.95;;;5.68;;
45136;SDS011;30894;51.740;19.498;2023-09-30T09:17:47;12.00;;;5.22;;
45136;SDS011;30894;51.740;19.498;2023-09-30T09:20:16;9.88;;;5.32;;
45136;SDS011;30894;51.740;19.498;2023-09-30T09:22:49;2.97;;;1.88;;
45136;SDS011;30894;51.740;19.498;2023-09-30T09:25:19;4.45;;;1.73;;
45136;SDS011;30894;51.740;19.498;2023-09-30T09:27:49;3.47;;;1.42;;
45136;SDS011;30894;51.740;19.498;2023-09-30T09:33:02;3.83;;;1.15;;
45136;SDS011;30894;51.740;19.498;2023-09-30T09:35:31;4.00;;;1.08;;
45136;SDS011;30894;51.740;19.498;2023-09-30T09:38:06;2.50;;;0.95;;
45136;SDS011;30894;51.740;19.498;2023-09-30T09:40:34;3.22;;;0.80;;
45136;SDS011;30894;51.740;19.498;2023-09-30T09:43:03;2.10;;;0.82;;
45136;SDS011;30894;51.740;19.498;2023-09-30T09:45:34;6.05;;;1.20;;
45136;SDS011;30894;51.740;19.498;2023-09-30T09:48:03;3.25;;;1.20;;
45136;SDS011;30894;51.740;19.498;2023-09-30T09:50:30;6.10;;;1.38;;
45136;SDS011;30894;51.740;19.498;2023-09-30T09:52:59;4.57;;;1.42;;
45136;SDS011;30894;51.740;19.498;2023-09-30T09:55:26;2.83;;;1.30;;
45136;SDS011;30894;51.740;19.498;2023-09-30T09:57:53;4.72;;;1.10;;
45136;SDS011;30894;51.740;19.498;2023-09-30T10:00:23;2.35;;;1.48;;
45136;SDS011;30894;51.740;19.498;2023-09-30T10:02:51;3.70;;;1.23;;
45136;SDS011;30894;51.740;19.498;2023-09-30T10:05:18;5.80;;;1.30;;
45136;SDS011;30894;51.740;19.498;2023-09-30T10:07:49;3.90;;;1.40;;
45136;SDS011;30894;51.740;19.498;2023-09-30T10:10:28;3.15;;;1.50;;
45136;SDS011;30894;51.740;19.498;2023-09-30T10:12:56;4.32;;;1.40;;
45136;SDS011;30894;51.740;19.498;2023-09-30T10:18:01;6.38;;;1.30;;
45136;SDS011;30894;51.740;19.498;2023-09-30T10:20:38;2.78;;;1.55;;
45136;SDS011;30894;51.740;19.498;2023-09-30T10:26:35;4.82;;;1.27;;
45136;SDS011;30894;51.740;19.498;2023-09-30T10:34:36;4.40;;;1.42;;
45136;SDS011;30894;51.740;19.498;2023-09-30T10:42:42;3.13;;;1.45;;
45136;SDS011;30894;51.740;19.498;2023-09-30T10:53:45;6.38;;;1.98;;
45136;SDS011;30894;51.740;19.498;2023-09-30T10:56:51;3.60;;;1.60;;
45136;SDS011;30894;51.740;19.498;2023-09-30T11:28:39;6.35;;;1.55;;
45136;SDS011;30894;51.740;19.498;2023-09-30T11:32:14;4.15;;;1.38;;
45136;SDS011;30894;51.740;19.498;2023-09-30T11:38:17;22.90;;;2.88;;
45136;SDS011;30894;51.740;19.498;2023-09-30T11:49:12;6.55;;;1.60;;
45136;SDS011;30894;51.740;19.498;2023-09-30T11:55:29;4.40;;;1.30;;
45136;SDS011;30894;51.740;19.498;2023-09-30T11:57:56;3.28;;;1.30;;
45136;SDS011;30894;51.740;19.498;2023-09-30T12:00:22;1.88;;;1.20;;
45136;SDS011;30894;51.740;19.498;2023-09-30T12:02:49;5.60;;;1.23;;
45136;SDS011;30894;51.740;19.498;2023-09-30T12:05:15;4.25;;;1.13;;
45136;SDS011;30894;51.740;19.498;2023-09-30T12:11:29;2.70;;;0.93;;
45136;SDS011;30894;51.740;19.498;2023-09-30T12:15:16;3.10;;;1.30;;
45136;SDS011;30894;51.740;19.498;2023-09-30T12:18:49;3.63;;;1.15;;
45136;SDS011;30894;51.740;19.498;2023-09-30T12:22:37;5.57;;;1.38;;
45136;SDS011;30894;51.740;19.498;2023-09-30T12:29:07;10.00;;;1.63;;
45136;SDS011;30894;51.740;19.498;2023-09-30T12:35:07;6.30;;;1.63;;
45136;SDS011;30894;51.740;19.498;2023-09-30T12:45:07;6.55;;;1.50;;
45136;SDS011;30894;51.740;19.498;2023-09-30T12:47:59;3.33;;;1.15;;
45136;SDS011;30894;51.740;19.498;2023-09-30T12:51:25;4.25;;;1.35;;
45136;SDS011;30894;51.740;19.498;2023-09-30T12:57:36;2.95;;;1.25;;
45136;SDS011;30894;51.740;19.498;2023-09-30T13:04:34;7.70;;;1.42;;
45136;SDS011;30894;51.740;19.498;2023-09-30T13:07:28;5.75;;;1.50;;
45136;SDS011;30894;51.740;19.498;2023-09-30T13:11:00;5.20;;;1.63;;
45136;SDS011;30894;51.740;19.498;2023-09-30T13:14:42;5.28;;;1.70;;
45136;SDS011;30894;51.740;19.498;2023-09-30T13:20:19;4.50;;;1.20;;
45136;SDS011;30894;51.740;19.498;2023-09-30T13:26:08;4.47;;;1.23;;
45136;SDS011;30894;51.740;19.498;2023-09-30T13:28:36;5.10;;;1.45;;
45136;SDS011;30894;51.740;19.498;2023-09-30T13:38:07;4.35;;;1.42;;
45136;SDS011;30894;51.740;19.498;2023-09-30T13:47:25;7.45;;;2.05;;
45136;SDS011;30894;51.740;19.498;2023-09-30T13:51:11;4.35;;;1.70;;
45136;SDS011;30894;51.740;19.498;2023-09-30T14:00:40;6.95;;;1.85;;
45136;SDS011;30894;51.740;19.498;2023-09-30T14:04:29;6.78;;;1.65;;
45136;SDS011;30894;51.740;19.498;2023-09-30T14:07:33;6.43;;;1.90;;
45136;SDS011;30894;51.740;19.498;2023-09-30T14:11:00;5.45;;;1.67;;
45136;SDS011;30894;51.740;19.498;2023-09-30T14:18:24;4.13;;;1.70;;
45136;SDS011;30894;51.740;19.498;2023-09-30T14:21:29;6.82;;;2.03;;
45136;SDS011;30894;51.740;19.498;2023-09-30T14:24:59;8.57;;;1.95;;
45136;SDS011;30894;51.740;19.498;2023-09-30T14:28:24;33.88;;;4.00;;
45136;SDS011;30894;51.740;19.498;2023-09-30T14:31:42;22.45;;;3.05;;
45136;SDS011;30894;51.740;19.498;2023-09-30T14:38:13;6.05;;;1.70;;
45136;SDS011;30894;51.740;19.498;2023-09-30T14:52:45;17.25;;;2.85;;
45136;SDS011;30894;51.740;19.498;2023-09-30T14:59:09;8.70;;;1.83;;
45136;SDS011;30894;51.740;19.498;2023-09-30T15:05:57;11.05;;;2.45;;
45136;SDS011;30894;51.740;19.498;2023-09-30T15:12:18;5.50;;;1.48;;
45136;SDS011;30894;51.740;19.498;2023-09-30T15:15:42;7.63;;;1.63;;
45136;SDS011;30894;51.740;19.498;2023-09-30T15:22:08;5.25;;;1.73;;
45136;SDS011;30894;51.740;19.498;2023-09-30T15:25:04;4.90;;;1.67;;
45136;SDS011;30894;51.740;19.498;2023-09-30T15:28:39;6.85;;;1.60;;
45136;SDS011;30894;51.740;19.498;2023-09-30T15:31:52;6.35;;;1.83;;
45136;SDS011;30894;51.740;19.498;2023-09-30T15:41:06;6.22;;;1.50;;
45136;SDS011;30894;51.740;19.498;2023-09-30T15:44:25;13.63;;;2.10;;
45136;SDS011;30894;51.740;19.498;2023-09-30T15:47:41;6.57;;;1.67;;
45136;SDS011;30894;51.740;19.498;2023-09-30T15:54:31;6.35;;;1.45;;
45136;SDS011;30894;51.740;19.498;2023-09-30T15:57:19;5.95;;;1.73;;
45136;SDS011;30894;51.740;19.498;2023-09-30T16:00:20;6.80;;;2.08;;
45136;SDS011;30894;51.740;19.498;2023-09-30T16:03:20;7.85;;;1.90;;
45136;SDS011;30894;51.740;19.498;2023-09-30T16:06:27;5.45;;;1.50;;
45136;SDS011;30894;51.740;19.498;2023-09-30T16:09:53;5.93;;;1.45;;
45136;SDS011;30894;51.740;19.498;2023-09-30T16:13:09;7.70;;;1.60;;
45136;SDS011;30894;51.740;19.498;2023-09-30T16:16:23;4.75;;;1.80;;
45136;SDS011;30894;51.740;19.498;2023-09-30T16:19:58;6.40;;;2.00;;
45136;SDS011;30894;51.740;19.498;2023-09-30T16:24:04;10.48;;;2.03;;
45136;SDS011;30894;51.740;19.498;2023-09-30T16:26:57;6.47;;;1.50;;
45136;SDS011;30894;51.740;19.498;2023-09-30T16:34:48;8.48;;;1.70;;
45136;SDS011;30894;51.740;19.498;2023-09-30T16:38:09;4.78;;;1.50;;
45136;SDS011;30894;51.740;19.498;2023-09-30T16:43:58;6.60;;;1.92;;
45136;SDS011;30894;51.740;19.498;2023-09-30T16:47:10;8.27;;;1.52;;
45136;SDS011;30894;51.740;19.498;2023-09-30T16:54:55;6.28;;;1.60;;
45136;SDS011;30894;51.740;19.498;2023-09-30T16:58:39;4.50;;;1.45;;
45136;SDS011;30894;51.740;19.498;2023-09-30T17:01:40;7.22;;;1.80;;
45136;SDS011;30894;51.740;19.498;2023-09-30T17:10:31;4.80;;;1.52;;
45136;SDS011;30894;51.740;19.498;2023-09-30T17:16:12;5.43;;;1.80;;
45136;SDS011;30894;51.740;19.498;2023-09-30T17:22:39;7.10;;;1.90;;
45136;SDS011;30894;51.740;19.498;2023-09-30T17:25:44;3.38;;;1.38;;
45136;SDS011;30894;51.740;19.498;2023-09-30T17:32:49;4.88;;;1.80;;
45136;SDS011;30894;51.740;19.498;2023-09-30T17:36:09;4.93;;;1.23;;
45136;SDS011;30894;51.740;19.498;2023-09-30T17:39:23;9.25;;;1.50;;
45136;SDS011;30894;51.740;19.498;2023-09-30T17:42:34;7.25;;;1.50;;
45136;SDS011;30894;51.740;19.498;2023-09-30T17:49:24;9.05;;;1.70;;
45136;SDS011;30894;51.740;19.498;2023-09-30T17:53:01;8.95;;;2.58;;
45136;SDS011;30894;51.740;19.498;2023-09-30T17:58:56;7.60;;;2.35;;
45136;SDS011;30894;51.740;19.498;2023-09-30T18:02:28;10.70;;;2.50;;
45136;SDS011;30894;51.740;19.498;2023-09-30T18:09:32;7.20;;;3.08;;
45136;SDS011;30894;51.740;19.498;2023-09-30T18:12:58;9.65;;;3.17;;
45136;SDS011;30894;51.740;19.498;2023-09-30T18:26:37;10.45;;;2.90;;
45136;SDS011;30894;51.740;19.498;2023-09-30T18:30:08;9.95;;;3.08;;
45136;SDS011;30894;51.740;19.498;2023-09-30T18:32:41;15.03;;;4.40;;
45136;SDS011;30894;51.740;19.498;2023-09-30T18:35:31;13.07;;;5.07;;
45136;SDS011;30894;51.740;19.498;2023-09-30T18:38:35;9.65;;;3.47;;
45136;SDS011;30894;51.740;19.498;2023-09-30T18:41:41;12.10;;;3.45;;
45136;SDS011;30894;51.740;19.498;2023-09-30T18:44:11;11.20;;;3.40;;
45136;SDS011;30894;51.740;19.498;2023-09-30T18:50:46;8.10;;;3.22;;
45136;SDS011;30894;51.740;19.498;2023-09-30T18:54:04;8.98;;;2.95;;
45136;SDS011;30894;51.740;19.498;2023-09-30T18:56:39;9.40;;;2.83;;
45136;SDS011;30894;51.740;19.498;2023-09-30T18:59:58;8.95;;;3.33;;
45136;SDS011;30894;51.740;19.498;2023-09-30T19:07:58;12.32;;;5.18;;
45136;SDS011;30894;51.740;19.498;2023-09-30T19:11:03;12.23;;;3.33;;
45136;SDS011;30894;51.740;19.498;2023-09-30T19:15:01;12.93;;;3.45;;
45136;SDS011;30894;51.740;19.498;2023-09-30T19:18:11;7.82;;;2.97;;
45136;SDS011;30894;51.740;19.498;2023-09-30T19:21:19;10.20;;;3.08;;
45136;SDS011;30894;51.740;19.498;2023-09-30T19:24:38;6.90;;;2.90;;
45136;SDS011;30894;51.740;19.498;2023-09-30T19:28:27;19.20;;;7.95;;
45136;SDS011;30894;51.740;19.498;2023-09-30T19:31:23;19.75;;;7.88;;
45136;SDS011;30894;51.740;19.498;2023-09-30T19:34:24;15.88;;;5.18;;
45136;SDS011;30894;51.740;19.498;2023-09-30T19:40:23;17.15;;;4.45;;
45136;SDS011;30894;51.740;19.498;2023-09-30T19:43:47;14.52;;;3.95;;
45136;SDS011;30894;51.740;19.498;2023-09-30T19:46:19;12.50;;;3.67;;
45136;SDS011;30894;51.740;19.498;2023-09-30T19:49:33;13.55;;;4.65;;
45136;SDS011;30894;51.740;19.498;2023-09-30T19:52:16;12.82;;;4.57;;
45136;SDS011;30894;51.740;19.498;2023-09-30T19:55:44;7.32;;;3.00;;
45136;SDS011;30894;51.740;19.498;2023-09-30T19:58:54;11.43;;;3.70;;
45136;SDS011;30894;51.740;19.498;2023-09-30T20:01:54;13.00;;;5.32;;
45136;SDS011;30894;51.740;19.498;2023-09-30T20:07:52;19.02;;;6.85;;
45136;SDS011;30894;51.740;19.498;2023-09-30T20:11:43;21.00;;;9.63;;
45136;SDS011;30894;51.740;19.498;2023-09-30T20:14:57;19.73;;;7.78;;
45136;SDS011;30894;51.740;19.498;2023-09-30T20:20:46;13.00;;;5.75;;
45136;SDS011;30894;51.740;19.498;2023-09-30T20:23:41;8.93;;;3.90;;
45136;SDS011;30894;51.740;19.498;2023-09-30T20:26:41;20.80;;;7.00;;
45136;SDS011;30894;51.740;19.498;2023-09-30T20:29:50;15.90;;;5.35;;
45136;SDS011;30894;51.740;19.498;2023-09-30T20:32:24;15.95;;;4.80;;
45136;SDS011;30894;51.740;19.498;2023-09-30T20:38:32;9.25;;;3.15;;
45136;SDS011;30894;51.740;19.498;2023-09-30T20:41:08;8.00;;;2.25;;
45136;SDS011;30894;51.740;19.498;2023-09-30T20:43:59;12.43;;;3.55;;
45136;SDS011;30894;51.740;19.498;2023-09-30T20:47:22;14.55;;;5.30;;
45136;SDS011;30894;51.740;19.498;2023-09-30T20:50:32;14.93;;;6.63;;
45136;SDS011;30894;51.740;19.498;2023-09-30T20:53:15;13.35;;;7.20;;
45136;SDS011;30894;51.740;19.498;2023-09-30T20:56:34;14.68;;;4.53;;
45136;SDS011;30894;51.740;19.498;2023-09-30T20:59:29;10.05;;;3.70;;
45136;SDS011;30894;51.740;19.498;2023-09-30T21:02:43;8.88;;;3.75;;
45136;SDS011;30894;51.740;19.498;2023-09-30T21:09:15;7.22;;;4.18;;
45136;SDS011;30894;51.740;19.498;2023-09-30T21:11:45;16.75;;;4.22;;
45136;SDS011;30894;51.740;19.498;2023-09-30T21:14:20;8.70;;;3.33;;
45136;SDS011;30894;51.740;19.498;2023-09-30T21:21:01;15.40;;;5.18;;
45136;SDS011;30894;51.740;19.498;2023-09-30T21:24:09;11.25;;;3.22;;
45136;SDS011;30894;51.740;19.498;2023-09-30T21:27:28;7.50;;;2.55;;
45136;SDS011;30894;51.740;19.498;2023-09-30T21:31:07;5.63;;;2.22;;
45136;SDS011;30894;51.740;19.498;2023-09-30T21:37:39;8.18;;;2.90;;
45136;SDS011;30894;51.740;19.498;2023-09-30T21:40:32;8.63;;;2.67;;
45136;SDS011;30894;51.740;19.498;2023-09-30T21:43:56;10.38;;;3.00;;
45136;SDS011;30894;51.740;19.498;2023-09-30T21:51:30;10.73;;;3.42;;
45136;SDS011;30894;51.740;19.498;2023-09-30T21:55:08;11.05;;;4.00;;
45136;SDS011;30894;51.740;19.498;2023-09-30T21:58:35;14.65;;;4.32;;
